Airfield :
LOGIN :

Register | Disclaimer

   EN    FR    IT 

 










Legend :    VFR   Marginal VFR   IFR   Intensive IFR   Very Intensive IFR
Visi :
Ceiling :
>= 8 km
>= 3000ft
5 to 8 km
1000 to 3000 ft
1500m to 5 km
500 to 1000 ft
800 to 1500m
200 to 500 ft
< 800m
< 200 ft
Symbols :   Thunderstorms  Fog  Heavy snow  Heavy precipitations  Wind > 20 kt
SIGMETs :     Misc.  Thunderstorms  Icing  Turbulence  Mountain Waves  Volcanic Ashes







- Airport Elevation : 55 ft
- IATA code : DSA
- Download approach charts


EGCN - Robin Hood Doncaster Sheffield

CURRENT METAR :
  • 181820Z 15009KT 9999 SCT015 BKN019 03/01 Q1012

EXPIRED METARs :
  • 181750Z 16009KT 9999 -RA SCT016 BKN025 BKN042 04/01 Q1013
  • 181720Z 15009KT CAVOK 03/00 Q1013
  • 181650Z 14009KT CAVOK 03/00 Q1013
  • 181620Z 14008KT CAVOK 03/M00 Q1013
  • 181550Z 14008KT 9999 FEW037 02/M00 Q1013

TAF TAF EGCN
Valid from the 18 at 18:00 until the 19 at 18:00 UTC


181701Z 1818/1918 16009KT 9999 FEW013 BKN025
TEMPO 1818/1918 7000 -RA
PROB30
TEMPO 1818/1907 3500 RASN BKN005
BECMG 1822/1901 BKN012
PROB40
TEMPO 1907/1918 4000 RADZ BKN005
No reported NOTAMs for that airfield.



MET'MAP, your aeronautical weather chart ! - Copyright ORBIFLY December 2007 - Disclaimer

ORBIFLY MET'MAP TEAM :

Programming & Development : Alexandra Zaïnal
Concept & Development : Baudouin d'Aumeries
Co-Development & Prog : Marc-Olivier Méhu
Technical & hardware support : Manuel Goepfert

Contact : metmap@orbifly.com




SOURCES & CREDITS :

   NOAA